createdAt,value
2024-04-30T00:02:02.426Z,3.17
2024-04-30T00:04:29.053Z,3.30
2024-04-30T00:06:55.564Z,3.45
2024-04-30T00:09:22.178Z,3.35
2024-04-30T00:11:48.700Z,3.30
2024-04-30T00:14:15.236Z,3.03
2024-04-30T00:16:45.113Z,3.15
2024-04-30T00:19:12.245Z,3.22
2024-04-30T00:21:39.762Z,3.35
2024-04-30T00:24:06.847Z,3.10
2024-04-30T00:26:33.713Z,3.83
2024-04-30T00:29:00.496Z,3.25
2024-04-30T00:31:27.618Z,3.33
2024-04-30T00:33:54.336Z,3.33
2024-04-30T00:36:20.851Z,3.30
2024-04-30T00:38:47.347Z,3.70
2024-04-30T00:41:14.164Z,3.13
2024-04-30T00:43:40.911Z,3.03
2024-04-30T00:46:08.072Z,3.10
2024-04-30T00:48:40.521Z,3.28
2024-04-30T00:51:08.193Z,3.30
2024-04-30T00:53:35.181Z,3.03
2024-04-30T00:56:02.156Z,3.00
2024-04-30T00:58:29.288Z,3.10
2024-04-30T01:00:56.210Z,3.05
2024-04-30T01:03:22.947Z,3.10
2024-04-30T01:05:49.625Z,2.72
2024-04-30T01:08:16.265Z,3.00
2024-04-30T01:10:43.020Z,2.75
2024-04-30T01:13:10.339Z,3.00
2024-04-30T01:15:37.408Z,2.85
2024-04-30T01:18:05.366Z,2.70
2024-04-30T01:20:31.965Z,2.55
2024-04-30T01:22:58.690Z,2.78
2024-04-30T01:25:25.256Z,2.95
2024-04-30T01:27:51.827Z,3.10
2024-04-30T01:30:18.393Z,2.95
2024-04-30T01:32:45.098Z,3.05
2024-04-30T01:35:11.746Z,3.03
2024-04-30T01:37:38.521Z,3.00
2024-04-30T01:40:05.575Z,2.83
2024-04-30T01:42:32.171Z,2.72
2024-04-30T01:44:58.734Z,2.90
2024-04-30T01:47:25.284Z,2.50
2024-04-30T01:49:51.768Z,3.05
2024-04-30T01:52:18.348Z,3.22
2024-04-30T01:54:47.750Z,3.10
2024-04-30T01:57:14.508Z,2.83
2024-04-30T01:59:41.003Z,3.10
2024-04-30T02:02:07.559Z,2.97
2024-04-30T02:04:42.729Z,2.90
2024-04-30T02:07:15.688Z,2.70
2024-04-30T02:09:42.201Z,3.20
2024-04-30T02:12:08.719Z,3.40
2024-04-30T02:14:35.154Z,3.55
2024-04-30T02:17:02.256Z,3.50
2024-04-30T02:19:28.927Z,3.35
2024-04-30T02:21:56.076Z,3.47
2024-04-30T02:24:22.654Z,3.58
2024-04-30T02:26:49.163Z,3.97
2024-04-30T02:29:15.735Z,3.85
2024-04-30T02:31:42.192Z,4.07
2024-04-30T02:34:08.759Z,3.53
2024-04-30T02:36:35.336Z,3.72
2024-04-30T02:39:01.868Z,3.83
2024-04-30T02:41:28.509Z,3.60
2024-04-30T02:43:55.174Z,3.50
2024-04-30T02:46:21.811Z,3.40
2024-04-30T02:48:48.435Z,3.85
2024-04-30T02:51:14.950Z,3.83
2024-04-30T02:53:41.464Z,3.50
2024-04-30T02:56:07.983Z,3.78
2024-04-30T02:58:34.551Z,3.97
2024-04-30T03:01:01.286Z,3.67
2024-04-30T03:03:28.054Z,3.90
2024-04-30T03:05:54.815Z,4.07
2024-04-30T03:08:21.367Z,4.07
2024-04-30T03:10:47.918Z,3.97
2024-04-30T03:13:14.513Z,4.07
2024-04-30T03:15:41.068Z,4.18
2024-04-30T03:18:07.777Z,3.42
2024-04-30T03:20:34.392Z,3.70
2024-04-30T03:23:00.851Z,3.55
2024-04-30T03:25:27.534Z,3.53
2024-04-30T03:27:54.053Z,4.10
2024-04-30T03:30:20.509Z,4.28
2024-04-30T03:32:47.062Z,4.13
2024-04-30T03:35:13.549Z,4.07
2024-04-30T03:37:41.052Z,3.75
2024-04-30T03:40:08.133Z,3.72
2024-04-30T03:42:34.989Z,3.55
2024-04-30T03:45:02.444Z,4.25
2024-04-30T03:47:29.140Z,3.72
2024-04-30T03:49:57.119Z,4.10
2024-04-30T03:52:25.178Z,4.45
2024-04-30T03:54:51.801Z,3.92
2024-04-30T03:57:18.674Z,3.45
2024-04-30T03:59:45.147Z,3.88
2024-04-30T04:02:11.652Z,3.58
2024-04-30T04:04:38.282Z,4.30
2024-04-30T04:07:05.144Z,3.95
2024-04-30T04:09:31.754Z,4.13
2024-04-30T04:11:58.236Z,4.30
2024-04-30T04:14:25.822Z,4.70
2024-04-30T04:16:52.576Z,3.97
2024-04-30T04:19:19.136Z,4.53
2024-04-30T04:21:45.679Z,4.50
2024-04-30T04:24:12.322Z,3.70
2024-04-30T04:26:38.806Z,4.40
2024-04-30T04:29:05.314Z,4.00
2024-04-30T04:31:31.998Z,4.03
2024-04-30T04:33:59.299Z,4.30
2024-04-30T04:36:25.850Z,4.40
2024-04-30T04:38:52.420Z,4.22
2024-04-30T04:41:18.896Z,3.78
2024-04-30T04:43:45.482Z,4.22
2024-04-30T04:46:12.137Z,4.05
2024-04-30T04:48:38.675Z,4.70
2024-04-30T04:51:05.547Z,4.35
2024-04-30T04:53:32.299Z,4.07
2024-04-30T04:55:58.776Z,4.07
2024-04-30T04:58:25.403Z,3.60
2024-04-30T05:00:51.956Z,4.10
2024-04-30T05:03:18.589Z,4.25
2024-04-30T05:05:45.197Z,4.40
2024-04-30T05:08:12.220Z,3.70
2024-04-30T05:10:38.831Z,3.85
2024-04-30T05:13:05.386Z,4.20
2024-04-30T05:15:31.920Z,3.90
2024-04-30T05:17:58.588Z,3.85
2024-04-30T05:20:25.085Z,4.20
2024-04-30T05:22:51.792Z,4.40
2024-04-30T05:25:18.288Z,4.30
2024-04-30T05:27:44.723Z,3.67
2024-04-30T05:30:11.288Z,4.65
2024-04-30T05:32:39.290Z,4.45
2024-04-30T05:35:05.934Z,4.72
2024-04-30T05:37:32.509Z,3.90
2024-04-30T05:39:59.323Z,4.53
2024-04-30T05:42:25.845Z,4.40
2024-04-30T05:44:52.449Z,4.72
2024-04-30T05:47:19.121Z,5.03
2024-04-30T05:49:45.620Z,4.85
2024-04-30T05:52:12.088Z,5.35
2024-04-30T05:54:38.725Z,5.35
2024-04-30T05:57:05.424Z,4.90
2024-04-30T05:59:32.007Z,5.10
2024-04-30T06:01:58.480Z,4.82
2024-04-30T06:04:25.288Z,4.97
2024-04-30T06:06:51.817Z,5.30
2024-04-30T06:09:18.433Z,4.75
2024-04-30T06:11:45.108Z,5.32
2024-04-30T06:14:11.715Z,4.80
2024-04-30T06:16:38.437Z,5.00
2024-04-30T06:19:05.129Z,5.20
2024-04-30T06:21:37.715Z,5.00
2024-04-30T06:24:05.863Z,4.75
2024-04-30T06:26:32.674Z,5.20
2024-04-30T06:28:59.332Z,4.72
2024-04-30T06:31:25.923Z,4.47
2024-04-30T06:33:52.603Z,4.53
2024-04-30T06:36:19.125Z,4.80
2024-04-30T06:38:45.572Z,4.75
2024-04-30T06:41:12.272Z,5.20
2024-04-30T06:43:38.795Z,4.55
2024-04-30T06:46:05.422Z,4.63
2024-04-30T06:48:32.371Z,4.43
2024-04-30T06:50:58.930Z,4.68
2024-04-30T06:53:25.402Z,4.22
2024-04-30T06:55:54.521Z,4.32
2024-04-30T06:58:22.613Z,4.28
2024-04-30T07:00:49.162Z,4.65
2024-04-30T07:03:15.751Z,4.13
2024-04-30T07:05:42.339Z,3.97
2024-04-30T07:08:08.848Z,4.15
2024-04-30T07:10:35.582Z,4.15
2024-04-30T07:13:02.168Z,3.80
2024-04-30T07:15:29.102Z,3.50
2024-04-30T07:17:55.651Z,3.95
2024-04-30T07:20:22.382Z,3.60
2024-04-30T07:22:49.130Z,3.70
2024-04-30T07:25:15.739Z,3.67
2024-04-30T07:27:42.485Z,3.00
2024-04-30T07:30:09.335Z,3.28
2024-04-30T07:32:35.884Z,3.15
2024-04-30T07:35:02.498Z,3.00
2024-04-30T07:37:29.124Z,2.85
2024-04-30T07:39:55.629Z,3.03
2024-04-30T07:42:22.133Z,3.00
2024-04-30T07:44:48.748Z,3.00
2024-04-30T07:47:15.299Z,3.25
2024-04-30T07:49:41.904Z,2.90
2024-04-30T07:52:08.568Z,3.08
2024-04-30T07:54:35.343Z,3.05
2024-04-30T07:57:01.862Z,2.58
2024-04-30T07:59:28.471Z,2.78
2024-04-30T08:01:55.445Z,2.78
2024-04-30T08:04:21.962Z,3.30
2024-04-30T08:06:51.039Z,2.72
2024-04-30T08:09:18.248Z,2.70
2024-04-30T08:11:45.618Z,3.33
2024-04-30T08:14:12.279Z,3.20
2024-04-30T08:16:39.462Z,3.65
2024-04-30T08:19:06.078Z,2.58
2024-04-30T08:21:32.623Z,2.80
2024-04-30T08:23:59.283Z,3.00
2024-04-30T08:26:25.855Z,2.70
2024-04-30T08:28:52.354Z,3.00
2024-04-30T08:31:19.258Z,2.92
2024-04-30T08:33:45.959Z,3.15
2024-04-30T08:36:12.648Z,3.17
2024-04-30T08:38:39.170Z,3.00
2024-04-30T08:41:07.279Z,2.53
2024-04-30T08:43:34.457Z,2.67
2024-04-30T08:46:01.679Z,2.30
2024-04-30T08:48:30.112Z,2.80
2024-04-30T08:50:57.865Z,2.97
2024-04-30T08:53:25.186Z,3.08
2024-04-30T08:55:53.711Z,3.28
2024-04-30T08:58:20.436Z,3.10
2024-04-30T09:00:47.171Z,2.88
2024-04-30T09:03:13.958Z,2.70
2024-04-30T09:05:45.252Z,2.80
2024-04-30T09:08:11.815Z,3.08
2024-04-30T09:10:41.525Z,2.92
2024-04-30T09:13:08.151Z,2.70
2024-04-30T09:15:34.817Z,3.08
2024-04-30T09:18:08.869Z,3.20
2024-04-30T09:20:47.513Z,3.30
2024-04-30T09:23:24.618Z,3.40
2024-04-30T09:25:51.277Z,3.10
2024-04-30T09:28:17.842Z,2.72
2024-04-30T09:30:54.933Z,3.17
2024-04-30T09:33:21.606Z,3.40
2024-04-30T09:36:00.335Z,2.90
2024-04-30T09:38:28.613Z,4.32
2024-04-30T09:40:56.570Z,3.05
2024-04-30T09:43:23.359Z,2.88
2024-04-30T09:45:50.213Z,2.72
2024-04-30T09:48:16.798Z,2.97
2024-04-30T09:50:46.883Z,3.40
2024-04-30T09:53:14.138Z,2.72
2024-04-30T09:55:43.581Z,2.17
2024-04-30T09:58:12.667Z,2.53
2024-04-30T10:00:39.234Z,2.63
2024-04-30T10:03:09.244Z,2.65
2024-04-30T10:05:39.197Z,2.58
2024-04-30T10:08:06.262Z,2.28
2024-04-30T10:10:33.521Z,2.80
2024-04-30T10:13:11.283Z,2.45
2024-04-30T10:15:41.729Z,2.90
2024-04-30T10:18:08.853Z,3.00
2024-04-30T10:20:35.747Z,3.17
2024-04-30T10:23:02.956Z,2.55
2024-04-30T10:25:29.735Z,2.30
2024-04-30T10:28:10.818Z,2.10
2024-04-30T10:30:37.577Z,1.92
2024-04-30T10:33:04.838Z,2.00
2024-04-30T10:35:43.706Z,2.30
2024-04-30T10:38:10.458Z,1.98
2024-04-30T10:40:37.612Z,2.17
2024-04-30T10:43:04.353Z,1.60
2024-04-30T10:45:31.041Z,2.03
2024-04-30T10:47:57.897Z,2.15
2024-04-30T10:50:24.720Z,1.90
2024-04-30T10:52:51.530Z,2.10
2024-04-30T10:55:18.779Z,1.70
2024-04-30T10:57:45.642Z,1.70
2024-04-30T11:00:14.959Z,1.73
2024-04-30T11:02:41.644Z,2.35
2024-04-30T11:05:18.977Z,1.70
2024-04-30T11:07:58.332Z,1.70
2024-04-30T11:10:28.542Z,2.10
2024-04-30T11:13:03.671Z,2.40
2024-04-30T11:15:30.649Z,2.22
2024-04-30T11:17:57.461Z,2.30
2024-04-30T11:20:24.099Z,2.30
2024-04-30T11:22:50.688Z,1.95
2024-04-30T11:25:17.201Z,1.88
2024-04-30T11:27:44.706Z,1.70
2024-04-30T11:30:12.544Z,2.30
2024-04-30T11:32:39.085Z,2.50
2024-04-30T11:35:05.787Z,2.63
2024-04-30T11:37:34.354Z,2.30
2024-04-30T11:40:01.123Z,2.20
2024-04-30T11:42:34.323Z,1.95
2024-04-30T11:45:06.079Z,1.85
2024-04-30T11:47:32.822Z,2.15
2024-04-30T11:49:59.458Z,1.95
2024-04-30T11:52:25.947Z,2.15
2024-04-30T11:54:52.518Z,2.35
2024-04-30T11:57:19.113Z,2.45
2024-04-30T11:59:45.841Z,2.05
2024-04-30T12:02:12.611Z,2.03
2024-04-30T12:04:39.385Z,1.90
2024-04-30T12:07:06.123Z,2.10
2024-04-30T12:09:32.871Z,2.13
2024-04-30T12:11:59.512Z,2.00
2024-04-30T12:14:26.185Z,1.98
2024-04-30T12:16:52.793Z,2.08
2024-04-30T12:19:19.433Z,2.10
2024-04-30T12:21:46.104Z,1.88
2024-04-30T12:24:12.804Z,2.05
2024-04-30T12:26:39.639Z,1.92
2024-04-30T12:29:06.352Z,1.63
2024-04-30T12:31:33.248Z,2.28
2024-04-30T12:33:59.843Z,2.30
2024-04-30T12:36:26.320Z,1.85
2024-04-30T12:38:52.794Z,1.77
2024-04-30T12:41:19.291Z,2.00
2024-04-30T12:43:45.788Z,1.50
2024-04-30T12:46:12.509Z,1.90
2024-04-30T12:48:39.203Z,1.90
2024-04-30T12:51:06.323Z,2.10
2024-04-30T12:53:34.342Z,2.25
2024-04-30T12:56:00.885Z,2.00
2024-04-30T12:58:27.365Z,1.73
2024-04-30T13:00:53.857Z,1.50
2024-04-30T13:03:20.609Z,2.10
2024-04-30T13:05:47.111Z,1.90
2024-04-30T13:08:13.645Z,1.95
2024-04-30T13:10:41.380Z,1.80
2024-04-30T13:13:08.087Z,1.73
2024-04-30T13:15:34.675Z,1.77
2024-04-30T13:18:01.286Z,1.88
2024-04-30T13:20:27.927Z,2.00
2024-04-30T13:22:54.548Z,1.77
2024-04-30T13:25:21.073Z,2.00
2024-04-30T13:27:47.547Z,1.95
2024-04-30T13:30:15.430Z,1.80
2024-04-30T13:32:41.981Z,1.80
2024-04-30T13:35:08.458Z,2.15
2024-04-30T13:37:34.965Z,1.85
2024-04-30T13:40:01.570Z,2.08
2024-04-30T13:42:28.113Z,2.17
2024-04-30T13:44:54.634Z,1.95
2024-04-30T13:47:21.227Z,1.75
2024-04-30T13:49:47.933Z,1.50
2024-04-30T13:52:14.548Z,1.48
2024-04-30T13:54:41.177Z,1.95
2024-04-30T13:57:07.896Z,1.85
2024-04-30T13:59:34.346Z,1.85
2024-04-30T14:02:00.973Z,2.00
2024-04-30T14:04:27.563Z,1.73
2024-04-30T14:06:54.172Z,1.85
2024-04-30T14:09:20.968Z,1.55
2024-04-30T14:11:47.518Z,1.90
2024-04-30T14:14:14.059Z,1.70
2024-04-30T14:16:44.615Z,2.10
2024-04-30T14:19:11.310Z,1.90
2024-04-30T14:21:37.879Z,1.92
2024-04-30T14:24:04.582Z,2.00
2024-04-30T14:26:31.052Z,1.70
2024-04-30T14:28:57.873Z,1.85
2024-04-30T14:31:24.513Z,2.05
2024-04-30T14:33:51.448Z,1.98
2024-04-30T14:36:18.124Z,1.70
2024-04-30T14:38:47.348Z,2.10
2024-04-30T14:41:14.356Z,1.85
2024-04-30T14:43:41.517Z,2.20
2024-04-30T14:46:08.315Z,2.00
2024-04-30T14:48:35.015Z,2.38
2024-04-30T14:51:01.676Z,1.90
2024-04-30T14:53:28.253Z,2.38
2024-04-30T14:55:54.776Z,2.20
2024-04-30T14:58:21.627Z,1.92
2024-04-30T15:00:48.413Z,1.98
2024-04-30T15:03:15.083Z,1.77
2024-04-30T15:05:41.583Z,2.17
2024-04-30T15:08:08.107Z,2.55
2024-04-30T15:10:34.564Z,2.70
2024-04-30T15:13:01.155Z,2.60
2024-04-30T15:15:27.663Z,2.72
2024-04-30T15:17:54.291Z,2.35
2024-04-30T15:20:20.874Z,2.47
2024-04-30T15:22:47.438Z,2.20
2024-04-30T15:25:14.078Z,2.90
2024-04-30T15:27:40.585Z,2.40
2024-04-30T15:30:07.729Z,2.50
2024-04-30T15:32:34.403Z,2.70
2024-04-30T15:35:01.182Z,2.25
2024-04-30T15:37:28.091Z,2.45
2024-04-30T15:39:54.626Z,2.45
2024-04-30T15:42:21.308Z,2.40
2024-04-30T15:44:47.767Z,2.20
2024-04-30T15:47:14.317Z,2.72
2024-04-30T15:49:40.817Z,2.80
2024-04-30T15:52:07.626Z,2.50
2024-04-30T15:54:34.228Z,2.40
2024-04-30T15:57:03.634Z,2.10
2024-04-30T15:59:32.931Z,2.38
2024-04-30T16:01:59.445Z,2.50
2024-04-30T16:04:26.071Z,2.38
2024-04-30T16:06:52.727Z,2.53
2024-04-30T16:09:19.220Z,2.60
2024-04-30T16:11:45.882Z,2.25
2024-04-30T16:14:13.170Z,2.30
2024-04-30T16:16:40.797Z,2.65
2024-04-30T16:19:11.353Z,2.30
2024-04-30T16:21:38.150Z,2.77
2024-04-30T16:24:07.518Z,2.70
2024-04-30T16:26:34.005Z,2.47
2024-04-30T16:29:00.569Z,2.30
2024-04-30T16:31:27.031Z,2.33
2024-04-30T16:33:53.703Z,2.80
2024-04-30T16:36:22.906Z,2.70
2024-04-30T16:38:50.879Z,2.63
2024-04-30T16:41:17.609Z,2.33
2024-04-30T16:43:44.188Z,2.20
2024-04-30T16:46:13.606Z,2.90
2024-04-30T16:48:40.164Z,3.00
2024-04-30T16:51:07.156Z,2.78
2024-04-30T16:53:33.684Z,2.47
2024-04-30T16:56:03.118Z,2.65
2024-04-30T16:58:31.044Z,2.13
2024-04-30T17:00:57.675Z,2.58
2024-04-30T17:03:24.353Z,2.15
2024-04-30T17:05:51.045Z,2.22
2024-04-30T17:08:18.392Z,2.35
2024-04-30T17:10:44.955Z,2.60
2024-04-30T17:13:11.655Z,2.95
2024-04-30T17:15:38.388Z,3.00
2024-04-30T17:18:05.806Z,2.70
2024-04-30T17:20:32.483Z,3.00
2024-04-30T17:22:59.243Z,2.40
2024-04-30T17:25:25.767Z,2.42
2024-04-30T17:27:52.278Z,2.40
2024-04-30T17:30:18.905Z,2.58
2024-04-30T17:32:45.758Z,2.40
2024-04-30T17:35:12.384Z,2.17
2024-04-30T17:37:39.010Z,2.60
2024-04-30T17:40:06.196Z,2.42
2024-04-30T17:42:32.751Z,2.58
2024-04-30T17:44:59.359Z,2.85
2024-04-30T17:47:25.960Z,2.60
2024-04-30T17:49:52.608Z,3.05
2024-04-30T17:52:19.074Z,3.58
2024-04-30T17:54:45.626Z,2.67
2024-04-30T17:57:12.607Z,2.92
2024-04-30T17:59:39.063Z,2.50
2024-04-30T18:02:05.588Z,3.20
2024-04-30T18:04:33.250Z,2.42
2024-04-30T18:07:00.015Z,3.25
2024-04-30T18:09:27.788Z,2.92
2024-04-30T18:11:54.305Z,2.80
2024-04-30T18:14:20.876Z,2.78
2024-04-30T18:16:47.620Z,2.25
2024-04-30T18:19:14.283Z,2.25
2024-04-30T18:21:40.722Z,2.45
2024-04-30T18:24:07.672Z,2.17
2024-04-30T18:26:41.744Z,2.78
2024-04-30T18:29:08.986Z,2.30
2024-04-30T18:31:35.874Z,2.67
2024-04-30T18:34:02.983Z,2.35
2024-04-30T18:36:29.785Z,2.40
2024-04-30T18:38:56.362Z,2.22
2024-04-30T18:41:28.419Z,2.25
2024-04-30T18:43:58.570Z,2.50
2024-04-30T18:46:25.365Z,2.40
2024-04-30T18:48:52.539Z,2.30
2024-04-30T18:51:20.060Z,2.10
2024-04-30T18:53:46.720Z,2.50
2024-04-30T18:56:13.256Z,2.10
2024-04-30T18:58:39.829Z,2.30
2024-04-30T19:01:06.410Z,2.00
2024-04-30T19:03:33.992Z,2.55
2024-04-30T19:06:00.836Z,2.50
2024-04-30T19:08:27.743Z,2.38
2024-04-30T19:10:54.181Z,2.35
2024-04-30T19:13:20.762Z,2.80
2024-04-30T19:15:47.412Z,2.47
2024-04-30T19:18:16.883Z,2.75
2024-04-30T19:20:43.627Z,2.65
2024-04-30T19:23:10.286Z,2.70
2024-04-30T19:25:36.803Z,2.90
2024-04-30T19:28:04.659Z,2.95
2024-04-30T19:30:31.669Z,3.15
2024-04-30T19:33:02.081Z,2.97
2024-04-30T19:35:28.614Z,2.78
2024-04-30T19:37:55.062Z,3.10
2024-04-30T19:40:21.611Z,3.17
2024-04-30T19:42:48.093Z,2.67
2024-04-30T19:45:14.629Z,2.83
2024-04-30T19:47:41.164Z,3.42
2024-04-30T19:50:07.733Z,2.83
2024-04-30T19:52:34.931Z,3.17
2024-04-30T19:55:01.508Z,3.88
2024-04-30T19:57:28.137Z,3.28
2024-04-30T19:59:54.610Z,5.30
2024-04-30T20:02:21.160Z,8.93
2024-04-30T20:04:47.813Z,9.10
2024-04-30T20:07:14.310Z,6.60
2024-04-30T20:09:41.016Z,4.75
2024-04-30T20:12:07.680Z,4.95
2024-04-30T20:14:34.188Z,5.03
2024-04-30T20:17:00.844Z,4.93
2024-04-30T20:19:27.332Z,4.10
2024-04-30T20:21:53.976Z,4.25
2024-04-30T20:24:20.683Z,4.30
2024-04-30T20:26:47.144Z,4.33
2024-04-30T20:29:13.625Z,4.03
2024-04-30T20:31:43.495Z,4.68
2024-04-30T20:34:10.369Z,4.25
2024-04-30T20:36:40.152Z,3.97
2024-04-30T20:39:06.753Z,4.23
2024-04-30T20:41:33.358Z,3.53
2024-04-30T20:43:59.804Z,3.70
2024-04-30T20:46:26.453Z,4.07
2024-04-30T20:48:53.113Z,4.07
2024-04-30T20:51:19.787Z,3.60
2024-04-30T20:53:46.794Z,3.75
2024-04-30T20:56:13.341Z,4.40
2024-04-30T20:58:40.631Z,3.30
2024-04-30T21:01:07.232Z,3.90
2024-04-30T21:03:34.030Z,3.83
2024-04-30T21:06:00.695Z,3.60
2024-04-30T21:08:27.356Z,3.95
2024-04-30T21:10:53.927Z,4.50
2024-04-30T21:13:20.589Z,4.00
2024-04-30T21:15:47.269Z,4.03
2024-04-30T21:18:13.929Z,4.07
2024-04-30T21:20:40.601Z,3.60
2024-04-30T21:23:07.184Z,3.50
2024-04-30T21:25:33.824Z,3.60
2024-04-30T21:28:00.594Z,3.60
2024-04-30T21:30:27.233Z,3.70
2024-04-30T21:32:53.887Z,3.53
2024-04-30T21:35:20.714Z,3.58
2024-04-30T21:37:47.196Z,3.78
2024-04-30T21:40:13.742Z,3.83
2024-04-30T21:42:40.292Z,3.88
2024-04-30T21:45:07.921Z,3.28
2024-04-30T21:47:34.711Z,3.53
2024-04-30T21:50:01.282Z,3.63
2024-04-30T21:52:27.931Z,3.73
2024-04-30T21:54:54.513Z,3.35
2024-04-30T21:57:21.182Z,3.45
2024-04-30T21:59:47.818Z,3.50
2024-04-30T22:02:14.404Z,3.58
2024-04-30T22:04:40.995Z,3.67
2024-04-30T22:07:07.692Z,3.83
2024-04-30T22:09:35.052Z,3.72
2024-04-30T22:12:01.780Z,4.20
2024-04-30T22:14:28.303Z,3.75
2024-04-30T22:16:54.809Z,4.13
2024-04-30T22:19:21.329Z,3.58
2024-04-30T22:21:47.924Z,4.10
2024-04-30T22:24:14.534Z,4.38
2024-04-30T22:26:41.512Z,4.18
2024-04-30T22:29:08.005Z,3.70
2024-04-30T22:31:34.486Z,3.85
2024-04-30T22:34:01.144Z,3.78
2024-04-30T22:36:28.039Z,3.72
2024-04-30T22:38:54.568Z,3.25
2024-04-30T22:41:21.096Z,3.53
2024-04-30T22:43:47.628Z,3.80
2024-04-30T22:46:15.405Z,3.22
2024-04-30T22:48:42.983Z,3.53
2024-04-30T22:51:09.847Z,3.17
2024-04-30T22:53:44.486Z,3.30
2024-04-30T22:56:16.928Z,3.40
2024-04-30T22:58:43.422Z,4.28
2024-04-30T23:01:10.770Z,3.88
2024-04-30T23:03:37.396Z,3.58
2024-04-30T23:06:04.274Z,3.38
2024-04-30T23:08:30.803Z,3.85
2024-04-30T23:10:57.319Z,3.30
2024-04-30T23:13:23.837Z,2.80
2024-04-30T23:15:50.441Z,3.08
2024-04-30T23:18:17.727Z,2.93
2024-04-30T23:20:44.414Z,2.67
2024-04-30T23:23:11.599Z,2.90
2024-04-30T23:25:38.076Z,3.03
2024-04-30T23:28:07.148Z,3.08
2024-04-30T23:30:33.650Z,3.30
2024-04-30T23:33:00.393Z,2.97
2024-04-30T23:35:27.377Z,2.80
2024-04-30T23:37:53.975Z,2.75
2024-04-30T23:40:20.493Z,2.80
2024-04-30T23:42:47.090Z,2.63
2024-04-30T23:45:13.899Z,3.30
2024-04-30T23:47:40.331Z,3.10
2024-04-30T23:50:06.988Z,3.08
2024-04-30T23:52:33.534Z,2.63
2024-04-30T23:55:00.375Z,3.10
2024-04-30T23:57:27.040Z,2.88
2024-04-30T23:59:53.538Z,2.72
